West Coxsackie, New York
Current Conditions -  °F | °C
As of 2:51 AM on Thursday 29 Jan 2015 (Local Time) from KALB Reporting Station
Clear Clear  
Wind Chill: -17°   Ceiling: Unl
Heat Index: -17°   Visibility: 10mi
Dew Point: -21°   Wind: 0mph
Humidity: 75%   Direction: NA
Pressure: 30.34"   Gusts: NA
Location:  42.36°N, 73.82°W
Report Text: KALB 290751Z 00000KT 10SM CLR M17/M21 A3034 RMK AO2 SLP282 T11721206
Loading
Personal Weather Stations






























Interactive Weather Map New forecast layout! Learn more

10-Day Weather Forecast

Advertisements
Track Severe Weather on mobile